createdAt,value
2023-02-26T00:01:52.050Z,7.20
2023-02-26T00:04:21.159Z,9.20
2023-02-26T00:06:54.203Z,8.50
2023-02-26T00:09:26.481Z,8.00
2023-02-26T00:11:55.997Z,7.10
2023-02-26T00:14:25.394Z,6.60
2023-02-26T00:17:19.951Z,6.60
2023-02-26T00:19:48.734Z,7.50
2023-02-26T00:22:17.642Z,10.10
2023-02-26T00:24:46.518Z,5.60
2023-02-26T00:27:15.092Z,6.20
2023-02-26T00:29:44.436Z,8.30
2023-02-26T00:32:14.384Z,7.50
2023-02-26T00:34:44.940Z,8.60
2023-02-26T00:37:20.670Z,9.80
2023-02-26T00:40:27.030Z,7.60
2023-02-26T00:42:57.938Z,7.20
2023-02-26T00:45:27.227Z,7.50
2023-02-26T00:48:08.045Z,7.40
2023-02-26T00:50:43.215Z,10.90
2023-02-26T00:53:37.166Z,6.50
2023-02-26T00:56:06.245Z,6.00
2023-02-26T00:58:35.358Z,7.00
2023-02-26T01:01:04.393Z,7.30
2023-02-26T01:03:33.760Z,6.10
2023-02-26T01:06:02.728Z,11.80
2023-02-26T01:08:39.087Z,5.90
2023-02-26T01:11:08.733Z,5.30
2023-02-26T01:13:37.409Z,5.60
2023-02-26T01:16:12.436Z,8.10
2023-02-26T01:18:50.925Z,8.40
2023-02-26T01:21:29.347Z,7.00
2023-02-26T01:24:01.836Z,7.20
2023-02-26T01:26:31.263Z,8.40
2023-02-26T01:29:00.274Z,6.70
2023-02-26T01:31:46.295Z,17.20
2023-02-26T01:34:39.825Z,10.60
2023-02-26T01:37:36.428Z,13.00
2023-02-26T01:40:24.416Z,14.00
2023-02-26T01:42:59.054Z,11.70
2023-02-26T01:45:35.945Z,10.20
2023-02-26T01:48:12.109Z,11.80
2023-02-26T01:50:41.102Z,11.20
2023-02-26T01:53:22.048Z,10.10
2023-02-26T01:55:59.380Z,8.70
2023-02-26T01:58:32.622Z,7.70
2023-02-26T02:01:02.655Z,9.60
2023-02-26T02:03:35.892Z,11.30
2023-02-26T02:06:08.141Z,9.50
2023-02-26T02:08:36.925Z,10.70
2023-02-26T02:11:09.655Z,9.20
2023-02-26T02:14:04.379Z,8.80
2023-02-26T02:16:53.816Z,9.20
2023-02-26T02:19:41.574Z,8.50
2023-02-26T02:22:36.155Z,8.30
2023-02-26T02:25:20.112Z,5.60
2023-02-26T02:27:52.293Z,7.00
2023-02-26T02:30:30.389Z,9.70
2023-02-26T02:33:03.788Z,8.30
2023-02-26T02:35:32.886Z,6.50
2023-02-26T02:38:04.598Z,7.20
2023-02-26T02:40:39.800Z,10.00
2023-02-26T02:43:16.228Z,8.60
2023-02-26T02:46:10.510Z,7.60
2023-02-26T02:48:44.953Z,9.50
2023-02-26T02:51:26.052Z,9.50
2023-02-26T02:54:07.582Z,6.20
2023-02-26T02:57:04.912Z,6.70
2023-02-26T02:59:43.233Z,6.20
2023-02-26T03:02:34.617Z,6.30
2023-02-26T03:05:04.251Z,6.20
2023-02-26T03:07:38.155Z,6.20
2023-02-26T03:10:07.474Z,5.40
2023-02-26T03:12:36.592Z,8.70
2023-02-26T03:15:06.219Z,8.20
2023-02-26T03:20:27.072Z,9.90
2023-02-26T03:23:20.153Z,8.50
2023-02-26T03:26:01.783Z,9.10
2023-02-26T03:28:40.538Z,8.10
2023-02-26T03:31:34.397Z,7.00
2023-02-26T03:34:20.135Z,7.10
2023-02-26T03:37:07.252Z,5.80
2023-02-26T03:39:46.650Z,6.60
2023-02-26T03:42:21.999Z,5.20
2023-02-26T03:45:06.021Z,8.30
2023-02-26T03:47:36.985Z,6.80
2023-02-26T03:50:11.315Z,11.10
2023-02-26T03:52:51.826Z,6.60
2023-02-26T03:55:45.129Z,8.10
2023-02-26T03:58:35.069Z,7.80
2023-02-26T04:01:33.545Z,11.50
2023-02-26T04:04:22.575Z,10.30
2023-02-26T04:06:53.801Z,8.20
2023-02-26T04:09:23.847Z,5.20
2023-02-26T04:11:55.096Z,7.30
2023-02-26T04:14:24.067Z,8.80
2023-02-26T04:16:54.548Z,10.50
2023-02-26T04:19:23.150Z,8.60
2023-02-26T04:21:52.586Z,8.90
2023-02-26T04:24:21.861Z,9.50
2023-02-26T04:26:50.756Z,6.50
2023-02-26T04:29:19.766Z,10.90
2023-02-26T04:31:49.105Z,4.50
2023-02-26T04:34:18.293Z,6.00
2023-02-26T04:36:47.278Z,4.60
2023-02-26T04:39:16.674Z,4.60
2023-02-26T04:41:45.233Z,5.00
2023-02-26T04:44:14.873Z,7.40
2023-02-26T04:46:44.346Z,4.70
2023-02-26T04:51:45.654Z,5.30
2023-02-26T04:54:16.358Z,5.30
2023-02-26T04:56:45.137Z,4.60
2023-02-26T04:59:14.167Z,5.60
2023-02-26T05:01:42.987Z,5.80
2023-02-26T05:04:12.096Z,5.20
2023-02-26T05:06:42.606Z,4.50
2023-02-26T05:09:11.236Z,6.40
2023-02-26T05:11:40.095Z,6.30
2023-02-26T05:14:09.431Z,5.00
2023-02-26T05:16:38.738Z,5.50
2023-02-26T05:19:07.304Z,7.50
2023-02-26T05:21:36.167Z,6.10
2023-02-26T05:24:05.846Z,8.30
2023-02-26T05:26:34.374Z,9.00
2023-02-26T05:29:05.586Z,13.60
2023-02-26T05:31:35.134Z,7.70
2023-02-26T05:34:03.680Z,14.50
2023-02-26T05:36:33.194Z,8.60
2023-02-26T05:39:01.795Z,8.30
2023-02-26T05:41:30.472Z,5.30
2023-02-26T05:43:59.846Z,4.50
2023-02-26T05:46:29.120Z,4.20
2023-02-26T05:48:57.972Z,5.40
2023-02-26T05:51:26.924Z,6.30
2023-02-26T05:53:55.652Z,10.80
2023-02-26T05:56:24.393Z,11.90
2023-02-26T05:58:54.125Z,5.20
2023-02-26T06:01:22.841Z,7.40
2023-02-26T06:03:51.386Z,7.20
2023-02-26T06:06:22.177Z,9.70
2023-02-26T06:08:50.821Z,6.60
2023-02-26T06:11:19.497Z,4.70
2023-02-26T06:13:48.683Z,6.60
2023-02-26T06:16:17.231Z,8.60
2023-02-26T06:18:45.886Z,10.00
2023-02-26T06:21:15.372Z,9.50
2023-02-26T06:23:44.105Z,9.10
2023-02-26T06:26:12.701Z,25.20
2023-02-26T06:28:42.328Z,18.10
2023-02-26T06:31:11.260Z,7.90
2023-02-26T06:33:39.929Z,9.60
2023-02-26T06:36:08.993Z,15.60
2023-02-26T06:38:37.910Z,10.20
2023-02-26T06:41:06.595Z,10.80
2023-02-26T06:43:35.795Z,10.90
2023-02-26T06:46:04.811Z,11.00
2023-02-26T06:48:33.785Z,9.60
2023-02-26T06:51:02.829Z,20.50
2023-02-26T06:53:31.779Z,10.40
2023-02-26T06:56:00.304Z,9.30
2023-02-26T06:58:29.440Z,7.80
2023-02-26T07:00:58.641Z,13.20
2023-02-26T07:03:27.216Z,5.00
2023-02-26T07:05:57.240Z,9.80
2023-02-26T07:08:26.493Z,11.80
2023-02-26T07:10:56.485Z,8.60
2023-02-26T07:13:27.232Z,11.00
2023-02-26T07:15:57.154Z,7.50
2023-02-26T07:18:26.230Z,14.00
2023-02-26T07:20:55.432Z,7.00
2023-02-26T07:23:24.099Z,6.20
2023-02-26T07:25:53.276Z,8.60
2023-02-26T07:28:22.613Z,9.70
2023-02-26T07:30:51.316Z,7.80
2023-02-26T07:33:22.640Z,9.30
2023-02-26T07:35:51.782Z,19.20
2023-02-26T07:38:20.441Z,13.30
2023-02-26T07:40:51.093Z,10.30
2023-02-26T07:43:20.076Z,7.80
2023-02-26T07:45:51.703Z,7.40
2023-02-26T07:48:21.528Z,13.20
2023-02-26T07:50:53.468Z,12.20
2023-02-26T07:53:25.683Z,20.20
2023-02-26T07:55:54.311Z,13.90
2023-02-26T07:58:23.127Z,16.30
2023-02-26T08:00:53.378Z,17.10
2023-02-26T08:03:22.734Z,12.40
2023-02-26T08:05:51.285Z,8.20
2023-02-26T08:08:20.749Z,16.40
2023-02-26T08:10:49.497Z,16.50
2023-02-26T08:13:18.565Z,9.90
2023-02-26T08:15:50.747Z,12.60
2023-02-26T08:18:19.297Z,14.50
2023-02-26T08:20:48.250Z,10.20
2023-02-26T08:23:17.383Z,15.50
2023-02-26T08:25:46.406Z,39.60
2023-02-26T08:28:15.928Z,26.80
2023-02-26T08:30:45.086Z,26.30
2023-02-26T08:33:13.602Z,19.00
2023-02-26T08:35:42.649Z,11.80
2023-02-26T08:38:11.719Z,13.40
2023-02-26T08:40:40.322Z,10.30
2023-02-26T08:43:09.746Z,14.60
2023-02-26T08:45:38.970Z,9.70
2023-02-26T08:48:09.258Z,13.00
2023-02-26T08:50:40.819Z,7.00
2023-02-26T08:53:10.264Z,12.10
2023-02-26T08:55:38.772Z,11.00
2023-02-26T08:58:09.023Z,11.70
2023-02-26T09:00:37.684Z,9.60
2023-02-26T09:03:06.356Z,11.70
2023-02-26T09:05:36.021Z,13.50
2023-02-26T09:08:05.135Z,17.00
2023-02-26T09:10:33.806Z,33.00
2023-02-26T09:13:02.989Z,95.80
2023-02-26T09:15:31.756Z,15.00
2023-02-26T09:18:01.087Z,15.60
2023-02-26T09:20:30.409Z,18.40
2023-02-26T09:22:59.429Z,24.30
2023-02-26T09:25:28.028Z,25.20
2023-02-26T09:27:58.661Z,19.20
2023-02-26T09:30:27.930Z,15.60
2023-02-26T09:32:56.575Z,20.60
2023-02-26T09:35:28.581Z,24.70
2023-02-26T09:37:57.432Z,21.50
2023-02-26T09:40:51.181Z,20.40
2023-02-26T09:43:41.942Z,19.20
2023-02-26T09:46:33.709Z,19.60
2023-02-26T09:49:25.562Z,18.10
2023-02-26T09:52:01.697Z,19.50
2023-02-26T09:54:35.824Z,16.50
2023-02-26T09:57:06.828Z,20.00
2023-02-26T09:59:35.527Z,16.40
2023-02-26T10:02:27.922Z,24.10
2023-02-26T10:05:12.851Z,29.00
2023-02-26T10:08:11.387Z,15.30
2023-02-26T10:10:52.512Z,19.40
2023-02-26T10:13:27.495Z,37.90
2023-02-26T10:16:02.336Z,23.50
2023-02-26T10:18:37.978Z,25.90
2023-02-26T10:21:15.304Z,32.10
2023-02-26T10:23:52.251Z,17.00
2023-02-26T10:26:27.822Z,17.20
2023-02-26T10:29:18.006Z,15.20
2023-02-26T10:32:00.448Z,17.20
2023-02-26T10:34:36.325Z,68.80
2023-02-26T10:37:18.818Z,43.30
2023-02-26T10:40:12.455Z,41.30
2023-02-26T10:42:49.522Z,22.60
2023-02-26T10:45:36.699Z,30.70
2023-02-26T10:48:23.827Z,24.40
2023-02-26T10:50:56.405Z,20.60
2023-02-26T10:53:28.935Z,14.60
2023-02-26T10:56:05.452Z,13.90
2023-02-26T10:58:34.351Z,22.30
2023-02-26T11:01:05.687Z,21.90
2023-02-26T11:03:46.439Z,25.30
2023-02-26T11:09:07.240Z,11.70
2023-02-26T11:11:46.653Z,12.50
2023-02-26T11:14:16.072Z,15.60
2023-02-26T11:17:03.190Z,12.00
2023-02-26T11:19:36.924Z,16.70
2023-02-26T11:22:10.025Z,54.40
2023-02-26T11:24:47.457Z,23.60
2023-02-26T11:27:22.525Z,11.60
2023-02-26T11:29:58.025Z,21.90
2023-02-26T11:32:35.741Z,35.40
2023-02-26T11:35:09.273Z,22.60
2023-02-26T11:37:40.982Z,23.60
2023-02-26T11:40:22.697Z,15.40
2023-02-26T11:42:56.107Z,18.50
2023-02-26T11:45:25.807Z,14.90
2023-02-26T11:48:02.945Z,21.40
2023-02-26T11:50:46.907Z,19.00
2023-02-26T11:53:24.423Z,11.90
2023-02-26T11:55:59.894Z,11.50
2023-02-26T11:58:34.751Z,16.60
2023-02-26T12:01:05.486Z,18.10
2023-02-26T12:03:41.222Z,24.70
2023-02-26T12:06:36.545Z,21.30
2023-02-26T12:09:12.758Z,25.10
2023-02-26T12:11:49.768Z,23.30
2023-02-26T12:14:49.700Z,19.60
2023-02-26T12:17:37.310Z,36.20
2023-02-26T12:20:20.254Z,54.70
2023-02-26T12:22:55.326Z,27.90
2023-02-26T12:25:46.912Z,23.30
2023-02-26T12:28:18.836Z,26.60
2023-02-26T12:31:05.507Z,48.30
2023-02-26T12:33:59.581Z,14.50
2023-02-26T12:36:49.035Z,93.00
2023-02-26T12:39:43.066Z,22.30
2023-02-26T12:42:33.708Z,37.20
2023-02-26T12:45:22.041Z,34.60
2023-02-26T12:48:18.474Z,29.80
2023-02-26T12:51:15.971Z,13.80
2023-02-26T12:53:56.990Z,17.70
2023-02-26T12:56:35.232Z,17.80
2023-02-26T12:59:24.725Z,17.60
2023-02-26T13:02:24.526Z,22.60
2023-02-26T13:05:11.107Z,39.10
2023-02-26T13:07:51.620Z,30.50
2023-02-26T13:10:52.722Z,24.40
2023-02-26T13:13:38.254Z,21.40
2023-02-26T13:16:34.857Z,39.80
2023-02-26T13:19:07.128Z,19.90
2023-02-26T13:21:52.074Z,17.20
2023-02-26T13:24:25.261Z,29.30
2023-02-26T13:26:55.596Z,15.90
2023-02-26T13:29:29.644Z,25.50
2023-02-26T13:32:04.050Z,18.20
2023-02-26T13:35:17.413Z,34.20
2023-02-26T13:37:54.895Z,30.70
2023-02-26T13:40:48.259Z,29.30
2023-02-26T13:43:39.010Z,24.20
2023-02-26T13:46:33.118Z,30.50
2023-02-26T13:49:02.895Z,36.20
2023-02-26T13:51:39.518Z,46.20
2023-02-26T13:54:15.452Z,29.60
2023-02-26T13:56:50.208Z,44.30
2023-02-26T13:59:30.553Z,46.70
2023-02-26T14:02:03.776Z,29.80
2023-02-26T14:04:50.107Z,29.20
2023-02-26T14:08:11.304Z,28.40
2023-02-26T14:11:05.199Z,30.20
2023-02-26T14:13:40.421Z,23.90
2023-02-26T14:16:24.068Z,21.70
2023-02-26T14:18:55.338Z,18.60
2023-02-26T14:21:52.514Z,13.30
2023-02-26T14:24:39.058Z,16.30
2023-02-26T14:27:23.886Z,21.50
2023-02-26T14:30:02.212Z,32.10
2023-02-26T14:32:35.129Z,23.90
2023-02-26T14:35:14.847Z,22.20
2023-02-26T14:37:47.526Z,15.70
2023-02-26T14:40:26.010Z,24.10
2023-02-26T14:43:03.924Z,58.20
2023-02-26T14:45:39.605Z,20.50
2023-02-26T14:48:17.290Z,15.40
2023-02-26T14:51:06.551Z,13.60
2023-02-26T14:53:59.302Z,26.10
2023-02-26T14:56:53.676Z,14.40
2023-02-26T14:59:35.248Z,17.60
2023-02-26T15:02:19.778Z,16.50
2023-02-26T15:05:09.939Z,14.80
2023-02-26T15:08:12.321Z,15.50
2023-02-26T15:11:11.578Z,18.60
2023-02-26T15:14:22.130Z,37.30
2023-02-26T15:17:22.677Z,25.40
2023-02-26T15:19:55.104Z,21.70
2023-02-26T15:22:53.357Z,50.90
2023-02-26T15:25:31.087Z,21.30
2023-02-26T15:28:00.457Z,18.30
2023-02-26T15:30:31.841Z,21.10
2023-02-26T15:33:03.390Z,23.60
2023-02-26T15:35:35.454Z,33.90
2023-02-26T15:38:04.914Z,31.20
2023-02-26T15:40:38.091Z,36.60
2023-02-26T15:43:10.166Z,41.00
2023-02-26T15:45:43.048Z,31.20
2023-02-26T15:48:26.292Z,35.50
2023-02-26T15:51:00.687Z,32.10
2023-02-26T15:53:42.697Z,23.50
2023-02-26T15:56:25.197Z,43.10
2023-02-26T15:59:00.473Z,37.20
2023-02-26T16:01:31.623Z,22.90
2023-02-26T16:04:07.485Z,48.30
2023-02-26T16:06:39.262Z,46.40
2023-02-26T16:09:16.470Z,48.60
2023-02-26T16:11:48.136Z,54.00
2023-02-26T16:14:22.733Z,36.00
2023-02-26T16:16:57.270Z,39.50
2023-02-26T16:19:42.294Z,24.10
2023-02-26T16:22:39.070Z,36.80
2023-02-26T16:25:31.677Z,22.60
2023-02-26T16:28:04.291Z,25.60
2023-02-26T16:30:37.022Z,17.30
2023-02-26T16:33:12.537Z,30.80
2023-02-26T16:35:56.010Z,34.70
2023-02-26T16:38:28.591Z,35.00
2023-02-26T16:41:05.438Z,35.80
2023-02-26T16:43:49.623Z,58.40
2023-02-26T16:46:26.863Z,47.30
2023-02-26T16:49:00.996Z,35.20
2023-02-26T16:51:32.471Z,43.60
2023-02-26T16:54:08.076Z,48.90
2023-02-26T16:56:42.310Z,98.00
2023-02-26T16:59:23.257Z,58.80
2023-02-26T17:02:00.602Z,132.30
2023-02-26T17:04:32.622Z,67.90
2023-02-26T17:07:03.045Z,76.40
2023-02-26T17:09:39.702Z,44.10
2023-02-26T17:12:15.709Z,69.80
2023-02-26T17:14:49.975Z,64.30
2023-02-26T17:17:18.852Z,86.00
2023-02-26T17:19:48.139Z,58.60
2023-02-26T17:22:22.095Z,58.60
2023-02-26T17:24:54.138Z,67.50
2023-02-26T17:27:35.633Z,61.60
2023-02-26T17:30:06.473Z,46.00
2023-02-26T17:32:36.730Z,41.20
2023-02-26T17:35:06.619Z,49.60
2023-02-26T17:37:37.439Z,44.10
2023-02-26T17:40:23.535Z,45.50
2023-02-26T17:42:53.386Z,44.40
2023-02-26T17:45:22.555Z,51.80
2023-02-26T17:47:51.244Z,81.10
2023-02-26T17:50:30.709Z,87.20
2023-02-26T17:52:59.281Z,63.70
2023-02-26T17:55:28.626Z,111.00
2023-02-26T17:57:58.798Z,109.80
2023-02-26T18:00:27.868Z,76.50
2023-02-26T18:03:09.430Z,60.00
2023-02-26T18:05:57.663Z,76.10
2023-02-26T18:08:51.960Z,52.10
2023-02-26T18:11:37.072Z,35.30
2023-02-26T18:14:27.996Z,42.40
2023-02-26T18:17:12.895Z,38.40
2023-02-26T18:20:04.983Z,36.90
2023-02-26T18:22:52.650Z,32.80
2023-02-26T18:25:37.486Z,27.90
2023-02-26T18:28:25.688Z,40.60
2023-02-26T18:31:20.176Z,24.60
2023-02-26T18:34:05.336Z,34.40
2023-02-26T18:37:00.296Z,26.60
2023-02-26T18:39:47.815Z,28.10
2023-02-26T18:42:32.485Z,29.90
2023-02-26T18:45:02.185Z,23.20
2023-02-26T18:47:45.779Z,26.50
2023-02-26T18:50:16.907Z,15.20
2023-02-26T18:52:45.781Z,16.70
2023-02-26T18:55:15.397Z,22.20
2023-02-26T18:57:44.199Z,23.50
2023-02-26T19:00:14.584Z,17.10
2023-02-26T19:02:46.672Z,38.50
2023-02-26T19:05:16.784Z,21.20
2023-02-26T19:07:45.427Z,17.30
2023-02-26T19:10:15.492Z,20.60
2023-02-26T19:12:45.287Z,14.40
2023-02-26T19:15:14.333Z,18.90
2023-02-26T19:17:44.676Z,22.40
2023-02-26T19:20:14.968Z,22.10
2023-02-26T19:25:13.233Z,29.60
2023-02-26T19:27:42.132Z,22.60
2023-02-26T19:30:11.297Z,17.60
2023-02-26T19:32:40.710Z,16.40
2023-02-26T19:35:10.113Z,19.90
2023-02-26T19:37:38.804Z,34.40
2023-02-26T19:40:11.915Z,22.00
2023-02-26T19:42:41.711Z,24.00
2023-02-26T19:45:11.585Z,25.20
2023-02-26T19:47:40.920Z,20.90
2023-02-26T19:50:11.062Z,20.50
2023-02-26T19:52:40.484Z,27.40
2023-02-26T19:55:10.314Z,22.40
2023-02-26T19:57:39.215Z,16.70
2023-02-26T20:00:09.047Z,19.40
2023-02-26T20:02:43.730Z,21.80
2023-02-26T20:05:17.186Z,22.50
2023-02-26T20:07:48.481Z,14.40
2023-02-26T20:10:20.033Z,25.00
2023-02-26T20:12:51.450Z,19.00
2023-02-26T20:15:20.156Z,20.30
2023-02-26T20:17:48.785Z,17.00
2023-02-26T20:20:18.577Z,19.80
2023-02-26T20:22:47.293Z,16.30
2023-02-26T20:25:15.906Z,21.60
2023-02-26T20:27:45.491Z,21.10
2023-02-26T20:30:14.825Z,26.80
2023-02-26T20:32:44.068Z,22.20
2023-02-26T20:35:14.234Z,21.30
2023-02-26T20:37:43.371Z,20.40
2023-02-26T20:40:13.196Z,24.70
2023-02-26T20:42:42.802Z,22.60
2023-02-26T20:45:11.641Z,23.70
2023-02-26T20:47:42.414Z,21.30
2023-02-26T20:50:13.484Z,17.30
2023-02-26T20:52:41.995Z,26.70
2023-02-26T20:55:10.617Z,24.50
2023-02-26T20:57:40.343Z,20.30
2023-02-26T21:00:14.178Z,30.60
2023-02-26T21:02:44.314Z,20.00
2023-02-26T21:05:14.375Z,19.80
2023-02-26T21:07:43.013Z,24.70
2023-02-26T21:10:16.341Z,24.70
2023-02-26T21:12:45.028Z,20.50
2023-02-26T21:15:14.697Z,24.40
2023-02-26T21:17:44.389Z,17.30
2023-02-26T21:20:18.256Z,22.10
2023-02-26T21:22:47.896Z,27.30
2023-02-26T21:25:17.494Z,22.00
2023-02-26T21:27:46.154Z,36.90
2023-02-26T21:30:15.808Z,37.00
2023-02-26T21:32:44.478Z,33.80
2023-02-26T21:35:16.269Z,28.50
2023-02-26T21:37:46.196Z,42.50
2023-02-26T21:40:16.692Z,35.30
2023-02-26T21:42:45.371Z,45.70
2023-02-26T21:45:14.798Z,34.00
2023-02-26T21:47:43.761Z,20.70
2023-02-26T21:50:12.587Z,22.70
2023-02-26T21:52:41.614Z,30.80
2023-02-26T21:55:11.716Z,24.90
2023-02-26T21:57:40.684Z,24.80
2023-02-26T22:00:17.536Z,28.60
2023-02-26T22:02:46.206Z,26.70
2023-02-26T22:05:15.081Z,26.40
2023-02-26T22:07:45.261Z,21.80
2023-02-26T22:10:13.878Z,23.40
2023-02-26T22:12:43.037Z,23.60
2023-02-26T22:15:12.083Z,33.10
2023-02-26T22:17:40.979Z,25.80
2023-02-26T22:20:11.344Z,24.90
2023-02-26T22:22:40.346Z,28.60
2023-02-26T22:25:13.383Z,30.60
2023-02-26T22:27:42.632Z,26.60
2023-02-26T22:30:12.160Z,25.80
2023-02-26T22:32:41.542Z,30.30
2023-02-26T22:35:14.158Z,27.80
2023-02-26T22:37:43.804Z,32.50
2023-02-26T22:40:13.750Z,36.30
2023-02-26T22:42:44.260Z,42.10
2023-02-26T22:45:13.812Z,34.30
2023-02-26T22:47:44.166Z,34.30
2023-02-26T22:52:42.881Z,30.40
2023-02-26T22:55:12.580Z,24.60
2023-02-26T22:57:41.570Z,23.20
2023-02-26T23:00:15.306Z,26.10
2023-02-26T23:02:45.373Z,23.80
2023-02-26T23:05:14.568Z,27.50
2023-02-26T23:07:43.972Z,21.40
2023-02-26T23:10:16.191Z,23.70
2023-02-26T23:12:45.127Z,27.80
2023-02-26T23:15:15.136Z,26.30
2023-02-26T23:17:43.863Z,19.30
2023-02-26T23:20:15.091Z,20.50
2023-02-26T23:22:44.204Z,20.20
2023-02-26T23:25:13.467Z,20.40
2023-02-26T23:27:42.324Z,16.90
2023-02-26T23:30:12.212Z,25.00
2023-02-26T23:32:41.436Z,22.70
2023-02-26T23:35:10.602Z,20.40
2023-02-26T23:37:39.784Z,26.70
2023-02-26T23:40:09.886Z,23.30
2023-02-26T23:45:07.862Z,18.30
2023-02-26T23:47:37.502Z,21.10
2023-02-26T23:50:07.049Z,20.50
2023-02-26T23:52:36.953Z,21.90
2023-02-26T23:55:06.663Z,22.60
2023-02-26T23:57:35.331Z,24.60
